createdAt,value
2017-11-26T00:01:00.704Z,3.60
2017-11-26T00:03:29.029Z,3.60
2017-11-26T00:05:57.309Z,3.60
2017-11-26T00:08:25.595Z,3.70
2017-11-26T00:10:53.904Z,3.60
2017-11-26T00:13:22.182Z,3.60
2017-11-26T00:15:50.490Z,3.60
2017-11-26T00:18:18.776Z,3.50
2017-11-26T00:20:47.082Z,3.50
2017-11-26T00:23:15.366Z,3.50
2017-11-26T00:25:43.698Z,3.40
2017-11-26T00:28:11.992Z,3.40
2017-11-26T00:30:40.277Z,3.40
2017-11-26T00:33:08.585Z,3.40
2017-11-26T00:35:36.862Z,3.50
2017-11-26T00:38:05.170Z,3.50
2017-11-26T00:40:33.449Z,3.50
2017-11-26T00:43:01.745Z,3.50
2017-11-26T00:45:30.029Z,3.50
2017-11-26T00:47:58.357Z,3.50
2017-11-26T00:50:26.642Z,3.50
2017-11-26T00:52:54.925Z,3.50
2017-11-26T00:55:23.232Z,3.50
2017-11-26T00:57:51.523Z,3.50
2017-11-26T01:00:19.831Z,3.50
2017-11-26T01:02:48.124Z,3.50
2017-11-26T01:05:16.434Z,3.40
2017-11-26T01:07:44.737Z,3.40
2017-11-26T01:10:13.053Z,3.30
2017-11-26T01:12:41.337Z,3.30
2017-11-26T01:15:09.621Z,3.20
2017-11-26T01:17:37.930Z,3.20
2017-11-26T01:20:06.216Z,3.20
2017-11-26T01:22:40.301Z,3.30
2017-11-26T01:25:08.589Z,3.20
2017-11-26T01:27:36.894Z,3.20
2017-11-26T01:30:05.173Z,3.30
2017-11-26T01:32:33.492Z,3.30
2017-11-26T01:35:01.769Z,3.30
2017-11-26T01:37:30.053Z,3.30
2017-11-26T01:39:58.357Z,3.30
2017-11-26T01:42:26.647Z,3.30
2017-11-26T01:44:54.948Z,3.30
2017-11-26T01:47:23.233Z,3.30
2017-11-26T01:49:51.561Z,3.30
2017-11-26T01:52:19.850Z,3.30
2017-11-26T01:54:48.139Z,3.20
2017-11-26T01:57:16.442Z,3.20
2017-11-26T01:59:44.725Z,3.10
2017-11-26T02:02:13.029Z,3.00
2017-11-26T02:04:41.310Z,3.00
2017-11-26T02:07:09.631Z,3.00
2017-11-26T02:09:37.914Z,2.90
2017-11-26T02:12:06.202Z,2.90
2017-11-26T02:14:34.506Z,3.00
2017-11-26T02:17:02.785Z,3.00
2017-11-26T02:19:31.089Z,3.00
2017-11-26T02:21:59.373Z,3.00
2017-11-26T02:24:27.708Z,3.00
2017-11-26T02:26:55.998Z,3.10
2017-11-26T02:29:24.286Z,3.10
2017-11-26T02:32:04.517Z,3.10
2017-11-26T02:34:44.690Z,3.10
2017-11-26T02:37:13.008Z,3.10
2017-11-26T02:39:41.326Z,3.10
2017-11-26T02:42:09.629Z,3.20
2017-11-26T02:44:37.923Z,3.20
2017-11-26T02:47:06.260Z,3.20
2017-11-26T02:49:34.550Z,3.20
2017-11-26T02:52:02.066Z,3.10
2017-11-26T02:54:29.604Z,3.20
2017-11-26T02:56:57.896Z,3.20
2017-11-26T02:59:26.208Z,3.20
2017-11-26T03:01:54.498Z,3.20
2017-11-26T03:04:22.827Z,3.10
2017-11-26T03:06:51.118Z,3.10
2017-11-26T03:09:19.402Z,3.20
2017-11-26T03:11:47.713Z,3.10
2017-11-26T03:14:16.003Z,3.20
2017-11-26T03:16:44.311Z,3.20
2017-11-26T03:19:12.593Z,3.20
2017-11-26T03:21:40.906Z,3.20
2017-11-26T03:24:09.200Z,3.20
2017-11-26T03:26:37.541Z,3.20
2017-11-26T03:29:05.837Z,3.20
2017-11-26T03:31:34.118Z,3.20
2017-11-26T03:34:02.416Z,3.10
2017-11-26T03:36:30.698Z,3.20
2017-11-26T03:38:58.226Z,3.10
2017-11-26T03:41:26.505Z,3.20
2017-11-26T03:43:54.817Z,3.20
2017-11-26T03:46:23.101Z,3.20
2017-11-26T03:48:51.394Z,3.20
2017-11-26T03:51:19.699Z,3.10
2017-11-26T03:53:47.986Z,3.10
2017-11-26T03:56:16.294Z,3.10
2017-11-26T03:58:44.583Z,3.10
2017-11-26T04:01:13.767Z,3.10
2017-11-26T04:03:42.051Z,3.00
2017-11-26T04:06:10.343Z,3.00
2017-11-26T04:08:38.646Z,2.90
2017-11-26T04:11:06.926Z,2.90
2017-11-26T04:13:35.230Z,2.90
2017-11-26T04:16:03.514Z,2.90
2017-11-26T04:18:31.833Z,2.80
2017-11-26T04:21:00.126Z,2.80
2017-11-26T04:23:27.645Z,2.80
2017-11-26T04:25:55.959Z,2.70
2017-11-26T04:28:24.241Z,2.70
2017-11-26T04:30:52.566Z,2.60
2017-11-26T04:33:20.853Z,2.60
2017-11-26T04:35:49.185Z,2.60
2017-11-26T04:38:17.475Z,2.60
2017-11-26T04:40:45.763Z,2.60
2017-11-26T04:43:14.066Z,2.60
2017-11-26T04:45:42.355Z,2.60
2017-11-26T04:48:10.658Z,2.60
2017-11-26T04:50:38.955Z,2.60
2017-11-26T04:53:07.268Z,2.60
2017-11-26T04:55:34.781Z,2.60
2017-11-26T04:58:03.061Z,2.60
2017-11-26T05:00:31.370Z,2.60
2017-11-26T05:02:59.666Z,2.50
2017-11-26T05:05:27.970Z,2.50
2017-11-26T05:07:56.257Z,2.50
2017-11-26T05:10:24.558Z,2.50
2017-11-26T05:12:52.842Z,2.40
2017-11-26T05:15:21.126Z,2.40
2017-11-26T05:17:49.434Z,2.40
2017-11-26T05:20:17.721Z,2.30
2017-11-26T05:22:46.026Z,2.30
2017-11-26T05:25:14.317Z,2.30
2017-11-26T05:27:42.630Z,2.20
2017-11-26T05:30:10.933Z,2.20
2017-11-26T05:32:39.257Z,2.20
2017-11-26T05:35:07.549Z,2.20
2017-11-26T05:37:35.843Z,2.20
2017-11-26T05:40:04.150Z,2.20
2017-11-26T05:42:32.431Z,2.20
2017-11-26T05:45:00.739Z,2.20
2017-11-26T05:47:29.021Z,2.20
2017-11-26T05:49:57.326Z,2.20
2017-11-26T05:52:25.618Z,2.20
2017-11-26T05:54:53.950Z,2.20
2017-11-26T05:57:22.241Z,2.20
2017-11-26T05:59:50.530Z,2.20
2017-11-26T06:02:18.841Z,2.20
2017-11-26T06:04:47.127Z,2.20
2017-11-26T06:07:15.438Z,2.20
2017-11-26T06:09:43.726Z,2.20
2017-11-26T06:12:11.270Z,2.20
2017-11-26T06:14:38.785Z,2.20
2017-11-26T06:17:07.103Z,2.30
2017-11-26T06:19:35.405Z,2.40
2017-11-26T06:22:03.686Z,2.40
2017-11-26T06:24:31.991Z,2.40
2017-11-26T06:27:00.282Z,2.50
2017-11-26T06:29:28.587Z,2.50
2017-11-26T06:31:56.878Z,2.50
2017-11-26T06:34:25.188Z,2.50
2017-11-26T06:36:53.469Z,2.60
2017-11-26T06:39:21.790Z,2.60
2017-11-26T06:41:50.073Z,2.60
2017-11-26T06:44:18.368Z,2.60
2017-11-26T06:46:46.678Z,2.60
2017-11-26T06:49:14.971Z,2.60
2017-11-26T06:51:43.282Z,2.70
2017-11-26T06:54:11.562Z,2.70
2017-11-26T06:56:39.874Z,2.70
2017-11-26T06:59:08.161Z,2.80
2017-11-26T07:01:36.480Z,2.70
2017-11-26T07:04:04.766Z,2.80
2017-11-26T07:06:33.058Z,2.80
2017-11-26T07:09:01.366Z,2.80
2017-11-26T07:11:29.662Z,2.80
2017-11-26T07:13:57.980Z,2.80
2017-11-26T07:16:26.277Z,2.90
2017-11-26T07:18:54.588Z,2.90
2017-11-26T07:21:22.881Z,2.90
2017-11-26T07:23:51.201Z,2.90
2017-11-26T07:26:19.498Z,2.90
2017-11-26T07:28:47.797Z,2.90
2017-11-26T07:31:15.332Z,2.90
2017-11-26T07:33:42.848Z,2.90
2017-11-26T07:36:11.158Z,3.00
2017-11-26T07:38:39.450Z,3.00
2017-11-26T07:41:07.753Z,3.00
2017-11-26T07:43:36.033Z,3.10
2017-11-26T07:46:04.342Z,3.10
2017-11-26T07:48:32.625Z,3.10
2017-11-26T07:51:00.912Z,3.20
2017-11-26T07:53:29.221Z,3.20
2017-11-26T07:55:57.500Z,3.20
2017-11-26T07:58:25.806Z,3.30
2017-11-26T08:00:54.099Z,3.30
2017-11-26T08:03:22.406Z,3.30
2017-11-26T08:05:50.700Z,3.30
2017-11-26T08:08:19.049Z,3.40
2017-11-26T08:10:47.330Z,3.40
2017-11-26T08:13:15.615Z,3.40
2017-11-26T08:15:43.921Z,3.40
2017-11-26T08:18:12.202Z,3.40
2017-11-26T08:20:40.506Z,3.50
2017-11-26T08:23:08.794Z,3.50
2017-11-26T08:25:37.841Z,3.50
2017-11-26T08:28:06.121Z,3.60
2017-11-26T08:30:34.412Z,3.60
2017-11-26T08:33:02.717Z,3.60
2017-11-26T08:35:30.995Z,3.70
2017-11-26T08:37:59.304Z,3.70
2017-11-26T08:40:27.606Z,3.70
2017-11-26T08:42:55.925Z,3.70
2017-11-26T08:45:24.218Z,3.80
2017-11-26T08:47:52.539Z,3.80
2017-11-26T08:50:20.828Z,3.90
2017-11-26T08:52:49.118Z,4.00
2017-11-26T08:55:17.425Z,4.00
2017-11-26T08:57:45.722Z,4.00
2017-11-26T09:00:14.037Z,4.00
2017-11-26T09:02:42.330Z,4.00
2017-11-26T09:05:10.638Z,4.00
2017-11-26T09:07:38.927Z,4.00
2017-11-26T09:10:07.235Z,4.00
2017-11-26T09:12:35.526Z,3.90
2017-11-26T09:15:04.018Z,4.00
2017-11-26T09:17:32.305Z,4.00
2017-11-26T09:20:00.611Z,4.10
2017-11-26T09:22:28.934Z,4.10
2017-11-26T09:24:57.246Z,4.10
2017-11-26T09:27:25.537Z,4.10
2017-11-26T09:29:53.838Z,4.10
2017-11-26T09:32:22.141Z,4.10
2017-11-26T09:34:50.435Z,4.10
2017-11-26T09:37:18.732Z,4.10
2017-11-26T09:39:47.017Z,4.10
2017-11-26T09:42:15.322Z,4.10
2017-11-26T09:44:43.620Z,4.10
2017-11-26T09:47:11.950Z,4.20
2017-11-26T09:49:40.238Z,4.20
2017-11-26T09:52:08.530Z,4.20
2017-11-26T09:54:36.833Z,4.20
2017-11-26T09:57:05.123Z,4.20
2017-11-26T09:59:33.433Z,4.20
2017-11-26T10:02:01.720Z,4.20
2017-11-26T10:04:30.031Z,4.20
2017-11-26T10:06:58.313Z,4.20
2017-11-26T10:09:26.613Z,4.30
2017-11-26T10:11:54.902Z,4.30
2017-11-26T10:14:23.205Z,4.40
2017-11-26T10:16:51.489Z,4.40
2017-11-26T10:19:19.025Z,4.40
2017-11-26T10:21:47.305Z,4.50
2017-11-26T10:24:15.617Z,4.50
2017-11-26T10:26:43.906Z,4.60
2017-11-26T10:29:12.221Z,4.60
2017-11-26T10:31:40.871Z,4.60
2017-11-26T10:34:09.215Z,4.50
2017-11-26T10:36:37.899Z,4.60
2017-11-26T10:39:06.202Z,4.60
2017-11-26T10:41:34.482Z,4.60
2017-11-26T10:44:02.782Z,4.60
2017-11-26T10:46:31.070Z,4.60
2017-11-26T10:48:59.385Z,4.70
2017-11-26T10:51:27.677Z,4.70
2017-11-26T10:53:55.983Z,4.70
2017-11-26T10:56:24.283Z,4.70
2017-11-26T10:58:52.597Z,4.70
2017-11-26T11:01:20.888Z,4.70
2017-11-26T11:03:49.199Z,4.70
2017-11-26T11:06:17.486Z,4.80
2017-11-26T11:08:45.787Z,4.90
2017-11-26T11:11:14.071Z,4.80
2017-11-26T11:13:42.378Z,4.90
2017-11-26T11:16:10.662Z,4.90
2017-11-26T11:18:38.973Z,4.90
2017-11-26T11:21:07.308Z,4.90
2017-11-26T11:23:35.615Z,4.90
2017-11-26T11:26:03.923Z,4.90
2017-11-26T11:28:32.202Z,4.90
2017-11-26T11:31:00.511Z,4.80
2017-11-26T11:33:28.025Z,4.80
2017-11-26T11:35:56.330Z,4.80
2017-11-26T11:38:24.614Z,4.70
2017-11-26T11:40:52.922Z,4.80
2017-11-26T11:43:21.201Z,4.80
2017-11-26T11:45:49.513Z,4.80
2017-11-26T11:48:17.797Z,4.80
2017-11-26T11:50:46.102Z,4.80
2017-11-26T11:53:14.386Z,4.60
2017-11-26T11:55:43.643Z,4.50
2017-11-26T11:58:11.941Z,4.40
2017-11-26T12:00:40.273Z,4.40
2017-11-26T12:03:08.567Z,4.40
2017-11-26T12:05:37.065Z,4.30
2017-11-26T12:08:05.358Z,4.30
2017-11-26T12:10:33.671Z,4.30
2017-11-26T12:13:01.962Z,4.40
2017-11-26T12:15:30.271Z,4.50
2017-11-26T12:17:58.562Z,4.60
2017-11-26T12:20:26.865Z,4.70
2017-11-26T12:22:55.169Z,4.80
2017-11-26T12:25:23.465Z,4.90
2017-11-26T12:27:51.758Z,5.00
2017-11-26T12:30:20.071Z,5.30
2017-11-26T12:32:48.355Z,5.40
2017-11-26T12:35:16.665Z,5.50
2017-11-26T12:37:44.949Z,5.50
2017-11-26T12:40:13.257Z,5.30
2017-11-26T12:42:41.632Z,5.10
2017-11-26T12:45:09.169Z,5.10
2017-11-26T12:47:37.511Z,5.00
2017-11-26T12:50:05.823Z,5.00
2017-11-26T12:52:34.113Z,5.00
2017-11-26T12:55:02.419Z,5.10
2017-11-26T12:57:30.710Z,5.20
2017-11-26T12:59:59.007Z,5.40
2017-11-26T13:02:27.317Z,5.50
2017-11-26T13:04:55.596Z,5.60
2017-11-26T13:07:23.898Z,5.50
2017-11-26T13:09:52.178Z,5.40
2017-11-26T13:12:20.482Z,5.30
2017-11-26T13:14:48.766Z,5.20
2017-11-26T13:17:17.078Z,5.20
2017-11-26T13:19:45.371Z,5.10
2017-11-26T13:22:13.690Z,5.10
2017-11-26T13:24:41.974Z,5.10
2017-11-26T13:27:10.282Z,5.10
2017-11-26T13:29:38.569Z,5.10
2017-11-26T13:32:06.879Z,5.10
2017-11-26T13:34:35.165Z,5.00
2017-11-26T13:37:03.473Z,5.00
2017-11-26T13:39:31.770Z,5.00
2017-11-26T13:42:00.078Z,4.90
2017-11-26T13:44:28.373Z,4.90
2017-11-26T13:46:56.700Z,5.00
2017-11-26T13:49:24.989Z,5.00
2017-11-26T13:51:53.310Z,4.90
2017-11-26T13:54:21.593Z,4.90
2017-11-26T13:56:49.898Z,4.90
2017-11-26T13:59:18.185Z,4.80
2017-11-26T14:01:46.497Z,4.80
2017-11-26T14:04:15.629Z,4.80
2017-11-26T14:06:43.933Z,4.70
2017-11-26T14:09:12.220Z,4.60
2017-11-26T14:11:40.535Z,4.60
2017-11-26T14:14:08.952Z,4.60
2017-11-26T14:16:37.265Z,4.60
2017-11-26T14:19:05.554Z,4.50
2017-11-26T14:21:34.649Z,4.50
2017-11-26T14:24:02.941Z,4.50
2017-11-26T14:26:31.249Z,4.50
2017-11-26T14:28:59.533Z,4.50
2017-11-26T14:31:27.848Z,4.50
2017-11-26T14:33:56.133Z,4.50
2017-11-26T14:36:24.471Z,4.50
2017-11-26T14:38:52.753Z,4.50
2017-11-26T14:41:21.038Z,4.50
2017-11-26T14:43:49.350Z,4.50
2017-11-26T14:46:17.642Z,4.50
2017-11-26T14:48:45.177Z,4.50
2017-11-26T14:51:13.467Z,4.40
2017-11-26T14:53:41.782Z,4.40
2017-11-26T14:56:10.074Z,4.40
2017-11-26T14:58:38.381Z,4.30
2017-11-26T15:01:06.679Z,4.30
2017-11-26T15:03:35.009Z,4.30
2017-11-26T15:06:03.302Z,4.30
2017-11-26T15:08:31.618Z,4.30
2017-11-26T15:10:59.910Z,4.30
2017-11-26T15:13:28.251Z,4.30
2017-11-26T15:15:56.549Z,4.20
2017-11-26T15:18:24.855Z,4.20
2017-11-26T15:20:53.142Z,4.10
2017-11-26T15:23:21.449Z,4.10
2017-11-26T15:25:49.733Z,4.10
2017-11-26T15:28:18.037Z,4.10
2017-11-26T15:30:45.562Z,4.10
2017-11-26T15:33:13.871Z,4.10
2017-11-26T15:35:42.167Z,4.10
2017-11-26T15:38:10.474Z,4.10
2017-11-26T15:40:38.762Z,4.10
2017-11-26T15:43:07.081Z,4.10
2017-11-26T15:45:35.374Z,4.10
2017-11-26T15:48:03.681Z,4.10
2017-11-26T15:50:31.970Z,4.00
2017-11-26T15:53:00.282Z,4.00
2017-11-26T15:55:28.654Z,3.90
2017-11-26T15:57:56.983Z,3.80
2017-11-26T16:00:25.314Z,3.80
2017-11-26T16:02:53.616Z,3.90
2017-11-26T16:05:21.908Z,3.90
2017-11-26T16:07:50.211Z,3.90
2017-11-26T16:10:18.506Z,3.90
2017-11-26T16:12:46.863Z,3.90
2017-11-26T16:15:15.162Z,4.00
2017-11-26T16:17:43.458Z,4.00
2017-11-26T16:20:11.761Z,4.00
2017-11-26T16:22:40.067Z,4.00
2017-11-26T16:25:08.381Z,4.00
2017-11-26T16:27:36.666Z,4.00
2017-11-26T16:30:04.978Z,3.90
2017-11-26T16:32:33.279Z,3.90
2017-11-26T16:35:00.818Z,3.90
2017-11-26T16:37:29.107Z,3.90
2017-11-26T16:39:57.418Z,3.90
2017-11-26T16:42:25.713Z,3.90
2017-11-26T16:44:54.026Z,3.80
2017-11-26T16:47:22.305Z,3.80
2017-11-26T16:49:50.614Z,3.80
2017-11-26T16:52:18.905Z,3.80
2017-11-26T16:54:47.223Z,3.80
2017-11-26T16:57:15.545Z,3.80
2017-11-26T16:59:43.830Z,3.80
2017-11-26T17:02:12.109Z,3.80
2017-11-26T17:04:40.421Z,3.80
2017-11-26T17:07:08.706Z,3.80
2017-11-26T17:09:37.015Z,3.80
2017-11-26T17:12:05.310Z,3.70
2017-11-26T17:14:33.623Z,3.70
2017-11-26T17:17:02.287Z,3.70
2017-11-26T17:19:30.621Z,3.70
2017-11-26T17:21:58.901Z,3.80
2017-11-26T17:24:27.211Z,3.80
2017-11-26T17:26:55.503Z,3.80
2017-11-26T17:29:23.810Z,3.80
2017-11-26T17:31:52.102Z,3.90
2017-11-26T17:34:20.413Z,3.90
2017-11-26T17:36:48.707Z,3.90
2017-11-26T17:39:17.027Z,3.90
2017-11-26T17:41:45.313Z,3.90
2017-11-26T17:44:13.629Z,3.90
2017-11-26T17:46:41.926Z,4.00
2017-11-26T17:49:10.248Z,4.00
2017-11-26T17:51:38.537Z,3.90
2017-11-26T17:54:06.856Z,3.90
2017-11-26T17:56:35.163Z,3.90
2017-11-26T17:59:03.458Z,3.90
2017-11-26T18:01:31.767Z,3.90
2017-11-26T18:04:00.058Z,3.90
2017-11-26T18:06:28.370Z,3.90
2017-11-26T18:08:56.662Z,3.90
2017-11-26T18:11:24.975Z,3.90
2017-11-26T18:13:53.257Z,3.90
2017-11-26T18:16:21.566Z,3.90
2017-11-26T18:18:49.862Z,4.00
2017-11-26T18:21:18.168Z,4.00
2017-11-26T18:23:46.465Z,4.00
2017-11-26T18:26:14.769Z,4.00
2017-11-26T18:28:43.058Z,4.00
2017-11-26T18:31:11.371Z,4.00
2017-11-26T18:33:39.651Z,4.00
2017-11-26T18:36:07.959Z,4.00
2017-11-26T18:38:36.257Z,4.00
2017-11-26T18:41:04.561Z,4.00
2017-11-26T18:43:32.855Z,4.10
2017-11-26T18:46:01.165Z,4.10
2017-11-26T18:48:28.693Z,4.10
2017-11-26T18:50:57.009Z,4.10
2017-11-26T18:53:25.289Z,4.10
2017-11-26T18:55:53.593Z,4.10
2017-11-26T18:58:21.877Z,4.10
2017-11-26T19:00:50.192Z,4.10
2017-11-26T19:03:18.481Z,4.10
2017-11-26T19:05:46.789Z,4.10
2017-11-26T19:08:15.078Z,4.10
2017-11-26T19:10:43.381Z,4.10
2017-11-26T19:13:11.669Z,4.20
2017-11-26T19:15:39.978Z,4.20
2017-11-26T19:18:08.257Z,4.20
2017-11-26T19:20:36.571Z,4.20
2017-11-26T19:23:04.854Z,4.20
2017-11-26T19:25:33.162Z,4.20
2017-11-26T19:28:01.466Z,4.20
2017-11-26T19:30:29.799Z,4.20
2017-11-26T19:32:58.091Z,4.20
2017-11-26T19:35:26.389Z,4.20
2017-11-26T19:37:54.693Z,4.20
2017-11-26T19:40:22.990Z,4.20
2017-11-26T19:42:51.341Z,4.20
2017-11-26T19:45:19.642Z,4.20
2017-11-26T19:47:47.973Z,4.20
2017-11-26T19:50:16.266Z,4.20
2017-11-26T19:52:44.574Z,4.20
2017-11-26T19:55:13.737Z,4.20
2017-11-26T19:57:42.047Z,4.30
2017-11-26T20:00:10.333Z,4.30
2017-11-26T20:02:38.648Z,4.30
2017-11-26T20:05:06.952Z,4.20
2017-11-26T20:07:35.261Z,4.20
2017-11-26T20:10:03.550Z,4.20
2017-11-26T20:12:31.900Z,4.10
2017-11-26T20:15:00.199Z,4.10
2017-11-26T20:17:28.505Z,4.20
2017-11-26T20:19:56.837Z,4.10
2017-11-26T20:22:25.145Z,4.10
2017-11-26T20:24:53.457Z,4.10
2017-11-26T20:27:21.818Z,4.10
2017-11-26T20:29:50.101Z,4.10
2017-11-26T20:32:18.410Z,4.10
2017-11-26T20:34:46.694Z,4.10
2017-11-26T20:37:15.001Z,4.10
2017-11-26T20:39:43.318Z,4.10
2017-11-26T20:42:11.645Z,4.10
2017-11-26T20:44:39.149Z,4.10
2017-11-26T20:47:07.466Z,4.10
2017-11-26T20:49:35.758Z,4.10
2017-11-26T20:52:04.074Z,4.10
2017-11-26T20:54:32.362Z,4.10
2017-11-26T20:57:00.668Z,4.10
2017-11-26T20:59:28.955Z,4.00
2017-11-26T21:01:57.295Z,4.00
2017-11-26T21:04:25.598Z,3.90
2017-11-26T21:06:53.894Z,3.80
2017-11-26T21:09:22.215Z,3.70
2017-11-26T21:11:50.516Z,3.70
2017-11-26T21:14:18.838Z,3.60
2017-11-26T21:16:47.134Z,3.50
2017-11-26T21:19:15.454Z,3.50
2017-11-26T21:21:43.747Z,3.40
2017-11-26T21:24:12.075Z,3.40
2017-11-26T21:26:40.366Z,3.40
2017-11-26T21:29:08.664Z,3.40
2017-11-26T21:31:36.970Z,3.40
2017-11-26T21:34:05.261Z,3.50
2017-11-26T21:36:33.596Z,3.50
2017-11-26T21:39:01.871Z,3.40
2017-11-26T21:41:30.182Z,3.40
2017-11-26T21:43:58.470Z,3.40
2017-11-26T21:46:26.778Z,3.40
2017-11-26T21:48:55.063Z,3.30
2017-11-26T21:51:23.385Z,3.30
2017-11-26T21:53:50.906Z,3.30
2017-11-26T21:56:19.189Z,3.30
2017-11-26T21:58:47.499Z,3.30
2017-11-26T22:01:15.789Z,3.30
2017-11-26T22:03:44.097Z,3.30
2017-11-26T22:06:12.387Z,3.40
2017-11-26T22:08:40.698Z,3.40
2017-11-26T22:11:08.986Z,3.50
2017-11-26T22:13:37.523Z,3.50
2017-11-26T22:16:05.809Z,3.50
2017-11-26T22:18:34.097Z,3.50
2017-11-26T22:21:02.410Z,3.50
2017-11-26T22:23:30.698Z,3.40
2017-11-26T22:25:59.010Z,3.40
2017-11-26T22:28:27.294Z,3.40
2017-11-26T22:30:55.604Z,3.40
2017-11-26T22:33:23.885Z,3.40
2017-11-26T22:35:52.208Z,3.30
2017-11-26T22:38:20.498Z,3.40
2017-11-26T22:40:48.786Z,3.40
2017-11-26T22:43:17.096Z,3.40
2017-11-26T22:45:45.386Z,3.40
2017-11-26T22:48:13.696Z,3.50
2017-11-26T22:50:41.982Z,3.60
2017-11-26T22:53:10.295Z,3.60
2017-11-26T22:55:38.579Z,3.60
2017-11-26T22:58:06.924Z,3.60
2017-11-26T23:00:35.201Z,3.60
2017-11-26T23:03:03.481Z,3.60
2017-11-26T23:05:31.783Z,3.60
2017-11-26T23:08:00.074Z,3.60
2017-11-26T23:10:28.376Z,3.60
2017-11-26T23:12:56.657Z,3.70
2017-11-26T23:15:24.976Z,3.70
2017-11-26T23:17:53.262Z,3.70
2017-11-26T23:20:21.550Z,3.70
2017-11-26T23:22:49.860Z,3.70
2017-11-26T23:25:18.150Z,3.70
2017-11-26T23:27:46.457Z,3.70
2017-11-26T23:30:14.750Z,3.70
2017-11-26T23:32:43.073Z,3.70
2017-11-26T23:35:11.352Z,3.70
2017-11-26T23:37:39.637Z,3.70
2017-11-26T23:40:07.938Z,3.60
2017-11-26T23:42:36.220Z,3.60
2017-11-26T23:45:04.516Z,3.60
2017-11-26T23:47:32.803Z,3.50
2017-11-26T23:50:01.107Z,3.50
2017-11-26T23:52:29.402Z,3.60
2017-11-26T23:54:57.734Z,3.60
2017-11-26T23:57:26.018Z,3.70
2017-11-26T23:59:54.306Z,3.70
